Valemount, Canada
Current Conditions -  °F | °C
As of 7:00 AM on Wednesday 26 Nov 2014 (Local Time) from CYWL Reporting Station
Light Snow Light Snow  
Wind Chill: -6°   Ceiling: 800
Heat Index: -2°   Visibility: 2mi
Dew Point: -3°   Wind: 7mph
Humidity: 93%   Direction: 60°ENE
Pressure: 30.03"   Gusts: NA
Location:  52.83°N, 119.25°W
Report Text: CYWL 261500Z 06006KT 2SM -SN OVC008 M02/M03 A3003 RMK SC8 /S02/ SLP212
Loading
Personal Weather Stations






























Interactive Weather Map New forecast layout! Learn more

10-Day Weather Forecast

Advertisements
Track Severe Weather on mobile